Time;durP1;ratioP1;P1;durP2;ratioP2;P2;SDS_P1;SDS_P2;PMS_P1;PMS_P2;Temp;Humidity;BMP_temperature;BMP_pressure;BME280_temperature;BME280_humidity;BME280_pressure;Samples;Min_cycle;Max_cycle;Signal;HPM_P1;HPM_P2
2023/06/19 00:02:20;;;;;;;7.88;6.45;;;25.00;71.80;;;;;;5011465;28;20026;-82
2023/06/19 00:04:46;;;;;;;11.07;6.50;;;25.00;71.80;;;;;;5012198;28;20042;-81
2023/06/19 00:07:12;;;;;;;10.07;6.25;;;24.90;71.70;;;;;;5015079;28;20029;-82
2023/06/19 00:09:37;;;;;;;9.25;6.38;;;24.90;71.90;;;;;;5013613;28;20449;-81
2023/06/19 00:12:04;;;;;;;7.32;6.25;;;24.90;72.00;;;;;;5013491;28;20507;-80
2023/06/19 00:14:29;;;;;;;6.30;5.80;;;24.80;72.40;;;;;;5018724;28;20401;-82
2023/06/19 00:16:56;;;;;;;6.38;5.68;;;24.90;71.90;;;;;;5016178;28;20022;-81
2023/06/19 00:19:22;;;;;;;5.95;5.40;;;24.80;71.80;;;;;;5026483;28;20081;-82
2023/06/19 00:21:48;;;;;;;7.65;5.55;;;24.80;71.70;;;;;;5025730;28;20841;-81
2023/06/19 00:24:16;;;;;;;6.05;5.50;;;24.90;71.60;;;;;;5013759;28;20022;-81
2023/06/19 00:26:42;;;;;;;6.07;5.47;;;24.80;71.80;;;;;;5030438;28;20022;-80
2023/06/19 00:29:08;;;;;;;6.47;5.82;;;24.70;71.50;;;;;;5012090;28;20100;-82
2023/06/19 00:31:37;;;;;;;5.93;5.25;;;24.80;71.80;;;;;;5016506;28;20647;-81
2023/06/19 00:34:02;;;;;;;7.57;6.18;;;24.80;71.70;;;;;;5013654;28;20047;-80
2023/06/19 00:36:28;;;;;;;6.30;5.63;;;24.70;72.60;;;;;;5013223;28;20025;-81
2023/06/19 00:38:53;;;;;;;6.43;5.82;;;24.60;72.00;;;;;;5014837;28;20108;-81
2023/06/19 00:41:20;;;;;;;8.25;5.13;;;24.60;72.10;;;;;;5016090;28;20025;-81
2023/06/19 00:43:48;;;;;;;7.80;5.80;;;24.60;71.80;;;;;;5012560;28;20038;-81
2023/06/19 00:46:14;;;;;;;5.88;5.28;;;24.60;71.80;;;;;;5013096;28;20030;-82
2023/06/19 00:48:40;;;;;;;5.93;5.43;;;24.50;72.10;;;;;;5012018;28;20022;-81
2023/06/19 00:51:06;;;;;;;6.63;6.00;;;24.50;72.30;;;;;;5015807;28;20103;-81
2023/06/19 00:53:33;;;;;;;8.13;5.88;;;24.50;72.30;;;;;;5018430;28;20540;-82
2023/06/19 00:55:59;;;;;;;6.45;4.95;;;24.50;72.50;;;;;;5013819;28;20037;-80
2023/06/19 00:58:25;;;;;;;5.85;5.30;;;24.40;72.80;;;;;;5012418;28;20473;-81
2023/06/19 01:00:51;;;;;;;5.28;4.63;;;24.40;73.10;;;;;;5024500;28;20559;-81
2023/06/19 01:03:17;;;;;;;6.18;5.47;;;24.50;73.10;;;;;;5029456;28;20064;-82
2023/06/19 01:05:44;;;;;;;6.65;5.90;;;24.40;73.20;;;;;;5013832;28;20433;-82
2023/06/19 01:08:14;;;;;;;6.55;5.93;;;24.40;73.20;;;;;;5015972;28;20028;-81
2023/06/19 01:10:59;;;;;;;5.70;5.10;;;24.40;73.30;;;;;;5014188;28;20131;-82
2023/06/19 01:13:37;;;;;;;7.45;5.45;;;24.40;73.50;;;;;;5015657;28;20034;-81
2023/06/19 01:16:04;;;;;;;10.27;5.35;;;24.30;73.60;;;;;;5030579;28;20057;-81
2023/06/19 01:18:31;;;;;;;8.02;5.68;;;24.30;73.70;;;;;;5014934;28;20030;-81
2023/06/19 01:21:15;;;;;;;6.20;4.63;;;24.20;73.70;;;;;;5023931;28;20025;-83
2023/06/19 01:23:43;;;;;;;8.07;5.35;;;24.20;73.90;;;;;;5024030;28;20648;-82
2023/06/19 01:26:09;;;;;;;6.03;5.35;;;24.10;73.80;;;;;;5021442;28;20475;-82
2023/06/19 01:28:37;;;;;;;5.45;4.95;;;24.10;73.80;;;;;;5021195;28;20017;-82
2023/06/19 01:31:06;;;;;;;5.28;4.78;;;24.10;73.90;;;;;;5013599;28;20033;-82
2023/06/19 01:33:33;;;;;;;8.57;5.50;;;24.00;73.90;;;;;;5013747;28;20209;-82
2023/06/19 01:36:02;;;;;;;8.38;6.00;;;24.00;74.20;;;;;;5013039;28;20049;-81
2023/06/19 01:38:30;;;;;;;6.32;5.43;;;24.00;74.30;;;;;;5012455;28;20025;-82
2023/06/19 01:40:57;;;;;;;5.90;5.30;;;24.00;74.30;;;;;;5019501;28;20428;-83
2023/06/19 01:43:24;;;;;;;5.90;5.07;;;23.90;74.30;;;;;;5016230;28;20041;-82
2023/06/19 01:45:50;;;;;;;6.07;5.47;;;23.90;74.50;;;;;;5018811;28;20032;-81
2023/06/19 01:48:16;;;;;;;9.45;5.80;;;23.80;74.60;;;;;;5013342;28;20501;-81
2023/06/19 01:50:46;;;;;;;6.60;5.93;;;23.80;75.50;;;;;;5015110;28;20017;-81
2023/06/19 01:53:11;;;;;;;9.10;5.72;;;23.70;75.00;;;;;;5012295;28;20495;-81
2023/06/19 01:55:37;;;;;;;7.35;5.10;;;23.70;75.20;;;;;;5011049;28;20029;-81
2023/06/19 01:58:03;;;;;;;5.32;4.82;;;23.60;75.50;;;;;;5020268;28;20540;-81
2023/06/19 02:00:30;;;;;;;6.55;5.70;;;23.50;76.00;;;;;;5013800;28;20045;-81
2023/06/19 02:02:56;;;;;;;5.63;5.05;;;23.50;76.20;;;;;;5019114;28;20405;-82
2023/06/19 02:05:21;;;;;;;6.95;5.50;;;23.50;76.40;;;;;;5030663;28;20593;-82
2023/06/19 02:07:47;;;;;;;5.95;5.43;;;23.30;76.70;;;;;;5014547;28;20437;-82
2023/06/19 02:10:13;;;;;;;6.13;5.55;;;23.30;77.70;;;;;;5014987;28;20204;-82
2023/06/19 02:12:38;;;;;;;7.72;5.72;;;23.30;77.20;;;;;;5019390;28;20024;-82
2023/06/19 02:15:04;;;;;;;6.03;5.43;;;23.30;77.40;;;;;;5016663;28;20074;-81
2023/06/19 02:17:32;;;;;;;6.88;5.82;;;23.30;77.70;;;;;;5014421;28;20033;-81
2023/06/19 02:19:58;;;;;;;6.18;5.55;;;23.20;77.90;;;;;;5018197;28;20033;-82
2023/06/19 02:22:26;;;;;;;6.00;5.50;;;23.20;78.00;;;;;;5018508;28;20038;-81
2023/06/19 02:24:52;;;;;;;7.00;5.57;;;23.10;78.50;;;;;;5012782;28;20018;-81
2023/06/19 02:27:18;;;;;;;6.80;5.15;;;23.10;78.70;;;;;;5034864;28;20049;-81
2023/06/19 02:29:44;;;;;;;5.53;5.05;;;23.00;79.20;;;;;;5026200;28;20076;-81
2023/06/19 02:32:10;;;;;;;6.30;5.35;;;23.00;79.40;;;;;;5011073;28;20271;-82
2023/06/19 02:34:36;;;;;;;6.10;5.30;;;23.00;79.40;;;;;;5015090;28;20336;-82
2023/06/19 02:37:02;;;;;;;6.05;5.53;;;23.00;79.70;;;;;;5015215;28;20112;-81
2023/06/19 02:39:28;;;;;;;5.70;5.18;;;23.00;79.90;;;;;;5011040;28;20035;-81
2023/06/19 02:41:54;;;;;;;7.20;5.75;;;23.00;80.70;;;;;;5007473;28;20105;-81
2023/06/19 02:44:19;;;;;;;10.00;5.38;;;23.00;80.90;;;;;;5014341;28;20425;-81
2023/06/19 02:46:45;;;;;;;5.75;5.15;;;23.00;80.20;;;;;;5010008;28;20497;-82
2023/06/19 02:49:11;;;;;;;8.82;5.15;;;23.00;80.40;;;;;;5011601;28;20037;-81
2023/06/19 02:51:39;;;;;;;5.95;5.40;;;22.90;80.70;;;;;;5011790;28;20036;-81
2023/06/19 02:54:06;;;;;;;6.68;5.70;;;23.00;80.80;;;;;;5011810;28;20030;-81
2023/06/19 02:56:32;;;;;;;5.68;5.05;;;23.00;80.80;;;;;;5012892;28;20390;-81
2023/06/19 02:58:57;;;;;;;5.00;4.57;;;23.10;80.80;;;;;;5016260;28;20021;-82
2023/06/19 03:01:23;;;;;;;5.57;5.07;;;23.10;80.80;;;;;;5016674;28;20477;-82
2023/06/19 03:03:49;;;;;;;8.45;4.72;;;23.10;80.90;;;;;;5013356;28;20119;-81
2023/06/19 03:06:15;;;;;;;5.90;4.50;;;23.00;82.10;;;;;;5008982;28;20457;-81
2023/06/19 03:08:40;;;;;;;5.15;4.43;;;23.00;81.90;;;;;;5013590;28;20120;-82
2023/06/19 03:11:06;;;;;;;8.18;4.72;;;23.00;82.50;;;;;;5011558;28;20022;-80
2023/06/19 03:13:52;;;;;;;5.22;4.68;;;23.10;82.80;;;;;;5018365;28;20049;-81
2023/06/19 03:16:18;;;;;;;7.00;4.10;;;22.90;83.50;;;;;;5026145;28;20053;-82
2023/06/19 03:18:44;;;;;;;4.60;3.95;;;22.90;84.20;;;;;;5010998;28;20018;-82
2023/06/19 03:21:19;;;;;;;6.90;4.10;;;22.80;84.80;;;;;;5012496;28;20129;-82
2023/06/19 03:23:44;;;;;;;5.53;3.60;;;22.80;85.10;;;;;;5010616;28;20421;-81
2023/06/19 03:26:10;;;;;;;7.10;3.85;;;22.70;85.80;;;;;;5017062;28;20177;-82
2023/06/19 03:28:36;;;;;;;5.50;4.22;;;22.70;86.30;;;;;;5018168;28;20095;-81
2023/06/19 03:31:02;;;;;;;7.40;4.00;;;22.70;86.70;;;;;;5009478;28;20469;-83
2023/06/19 03:33:28;;;;;;;3.78;3.38;;;22.70;86.80;;;;;;5017972;28;20100;-88
2023/06/19 03:35:56;;;;;;;3.47;3.17;;;22.60;87.30;;;;;;5019935;28;20192;-81
2023/06/19 03:38:22;;;;;;;8.35;3.30;;;22.60;87.70;;;;;;5021503;28;20034;-81
2023/06/19 03:40:48;;;;;;;3.60;3.30;;;22.60;88.00;;;;;;5014591;28;20783;-81
2023/06/19 03:43:13;;;;;;;8.93;3.70;;;22.40;88.50;;;;;;5013409;28;20537;-81
2023/06/19 03:45:39;;;;;;;4.28;3.13;;;22.40;89.50;;;;;;5015173;28;20423;-86
2023/06/19 03:48:04;;;;;;;5.70;3.63;;;22.30;90.00;;;;;;5035098;28;20041;-87
2023/06/19 03:50:30;;;;;;;4.13;3.70;;;22.30;90.10;;;;;;5036231;28;20045;-90
2023/06/19 03:52:56;;;;;;;4.43;3.38;;;22.10;90.60;;;;;;5031785;28;20026;-92
2023/06/19 03:55:21;;;;;;;4.95;3.90;;;22.10;90.80;;;;;;5028356;28;20026;-89
2023/06/19 03:57:47;;;;;;;3.55;3.05;;;22.10;91.00;;;;;;5036606;28;20366;-88
2023/06/19 04:00:14;;;;;;;7.28;3.78;;;22.10;91.20;;;;;;5014204;28;20029;-87
2023/06/19 04:02:40;;;;;;;5.97;4.03;;;22.00;91.60;;;;;;5045703;28;20049;-87
2023/06/19 04:05:09;;;;;;;4.93;4.38;;;21.90;91.80;;;;;;5021792;28;20033;-81
2023/06/19 04:10:11;;;;;;;4.65;4.07;;;21.80;92.40;;;;;;5070453;22;20452;-83
2023/06/19 04:12:37;;;;;;;4.70;4.28;;;21.70;93.00;;;;;;5023048;28;20017;-82
2023/06/19 04:15:03;;;;;;;11.85;4.43;;;21.70;93.10;;;;;;5043194;28;20036;-81
2023/06/19 04:17:29;;;;;;;5.55;4.50;;;21.60;93.50;;;;;;5027319;28;20029;-81
2023/06/19 04:19:59;;;;;;;5.57;4.65;;;21.60;93.90;;;;;;5039351;28;20087;-82
2023/06/19 04:22:25;;;;;;;6.40;4.57;;;21.60;94.50;;;;;;5038926;28;20228;-86
2023/06/19 04:24:50;;;;;;;5.47;4.30;;;21.40;94.50;;;;;;5053314;28;20017;-89
2023/06/19 04:27:16;;;;;;;7.22;3.63;;;21.50;95.10;;;;;;5046585;28;20048;-86
2023/06/19 04:29:41;;;;;;;6.25;4.40;;;21.40;94.80;;;;;;5046031;28;20088;-90
2023/06/19 04:32:11;;;;;;;7.25;4.43;;;21.40;95.00;;;;;;5035894;28;20059;-88
2023/06/19 04:34:45;;;;;;;5.68;4.15;;;21.50;95.30;;;;;;5060278;28;20017;-85
2023/06/19 04:37:11;;;;;;;6.97;4.22;;;21.40;95.50;;;;;;5043070;28;20468;-85
2023/06/19 04:39:37;;;;;;;5.90;4.25;;;21.40;95.70;;;;;;5026032;28;20461;-90
2023/06/19 04:42:05;;;;;;;5.60;3.88;;;21.50;95.90;;;;;;5043136;28;20107;-86
2023/06/19 04:44:33;;;;;;;5.20;4.03;;;21.40;96.10;;;;;;5023626;28;20021;-88
2023/06/19 04:47:01;;;;;;;5.63;3.88;;;21.50;96.00;;;;;;5045937;28;20017;-84
2023/06/19 04:49:32;;;;;;;4.93;3.63;;;21.40;96.70;;;;;;5044739;28;20028;-92
2023/06/19 04:52:00;;;;;;;5.05;4.03;;;21.50;96.60;;;;;;5042509;28;20017;-87
2023/06/19 04:54:28;;;;;;;7.20;4.35;;;21.50;96.80;;;;;;5025963;28;20527;-89
2023/06/19 04:56:53;;;;;;;10.23;3.90;;;21.50;97.10;;;;;;5033799;28;20029;-90
2023/06/19 04:59:19;;;;;;;6.43;3.30;;;21.50;97.20;;;;;;5041557;28;20038;-85
2023/06/19 05:01:45;;;;;;;4.00;3.25;;;21.40;97.70;;;;;;5026947;28;20535;-84
2023/06/19 05:04:13;;;;;;;6.63;3.70;;;21.30;98.10;;;;;;5030977;28;20266;-92
2023/06/19 05:06:39;;;;;;;6.60;3.60;;;21.40;98.40;;;;;;5045726;28;20369;-87
2023/06/19 05:09:05;;;;;;;3.85;3.15;;;21.40;98.60;;;;;;5026470;28;20041;-87
2023/06/19 05:11:31;;;;;;;5.57;3.47;;;21.50;98.80;;;;;;5031947;28;20020;-85
2023/06/19 05:13:56;;;;;;;9.43;3.25;;;21.30;99.00;;;;;;5042885;28;20057;-86
2023/06/19 05:16:23;;;;;;;7.65;3.50;;;21.40;99.30;;;;;;5033084;28;20027;-85
2023/06/19 05:18:49;;;;;;;4.90;3.40;;;21.40;99.50;;;;;;5045861;28;20461;-87
2023/06/19 05:21:15;;;;;;;9.15;3.42;;;21.40;99.80;;;;;;5025729;28;20112;-89
2023/06/19 05:23:40;;;;;;;3.70;3.30;;;21.50;99.90;;;;;;5026512;28;20029;-91
2023/06/19 05:26:06;;;;;;;4.10;3.30;;;21.50;99.90;;;;;;5040965;28;20033;-88
2023/06/19 05:28:32;;;;;;;5.15;3.10;;;21.50;99.90;;;;;;5027496;28;20021;-86
2023/06/19 05:30:58;;;;;;;4.43;2.70;;;21.50;99.90;;;;;;5020678;28;20078;-92
2023/06/19 05:33:24;;;;;;;3.70;2.53;;;21.50;99.90;;;;;;5030229;28;20277;-87
2023/06/19 05:35:53;;;;;;;4.05;3.40;;;21.60;99.90;;;;;;5040214;28;20508;-90
2023/06/19 05:38:20;;;;;;;4.68;3.08;;;21.50;99.90;;;;;;5044381;28;20295;-91
2023/06/19 05:40:46;;;;;;;4.60;2.70;;;21.70;99.90;;;;;;5036812;28;20022;-92
2023/06/19 05:43:11;;;;;;;3.38;3.08;;;21.80;99.90;;;;;;5036857;28;20096;-91
2023/06/19 05:45:39;;;;;;;4.07;3.10;;;21.70;99.90;;;;;;5042352;28;20023;-89
2023/06/19 05:48:05;;;;;;;4.85;3.17;;;21.60;99.90;;;;;;5043353;28;20091;-91
2023/06/19 05:50:31;;;;;;;4.00;3.00;;;21.70;99.90;;;;;;5043942;28;20029;-87
2023/06/19 05:52:57;;;;;;;3.70;2.65;;;21.70;99.90;;;;;;5021699;28;20032;-92
2023/06/19 05:55:24;;;;;;;5.15;2.97;;;21.70;99.90;;;;;;5029099;28;20380;-90
2023/06/19 05:57:50;;;;;;;3.58;2.67;;;21.80;99.90;;;;;;5044060;28;20025;-89
2023/06/19 06:00:16;;;;;;;6.20;3.10;;;21.90;99.90;;;;;;5032511;28;20595;-89
2023/06/19 06:02:42;;;;;;;6.90;3.05;;;21.80;99.90;;;;;;5043157;28;20044;-92
2023/06/19 06:05:08;;;;;;;3.38;3.05;;;21.80;99.90;;;;;;5043309;28;20152;-88
2023/06/19 06:07:34;;;;;;;4.18;3.05;;;21.80;99.90;;;;;;5030809;28;20056;-85
2023/06/19 06:10:00;;;;;;;3.38;3.03;;;21.90;99.90;;;;;;5025563;28;20921;-91
2023/06/19 06:12:28;;;;;;;4.57;3.38;;;21.80;99.90;;;;;;5037030;28;20078;-86
2023/06/19 06:14:54;;;;;;;3.78;3.42;;;21.80;99.90;;;;;;5032229;28;20035;-91
2023/06/19 06:17:21;;;;;;;8.77;3.40;;;21.80;99.90;;;;;;5026530;28;20092;-90
2023/06/19 06:19:47;;;;;;;3.72;2.65;;;21.90;99.90;;;;;;5024734;28;20033;-94
2023/06/19 06:22:13;;;;;;;2.95;2.75;;;21.90;99.90;;;;;;5040599;28;20041;-91
2023/06/19 06:24:38;;;;;;;3.65;3.30;;;21.80;99.90;;;;;;5034723;28;20010;-88
2023/06/19 06:27:06;;;;;;;5.10;3.10;;;21.90;99.90;;;;;;5029456;28;20266;-91
2023/06/19 06:29:32;;;;;;;3.25;2.80;;;22.20;99.90;;;;;;5046905;28;20031;-89
2023/06/19 06:32:06;;;;;;;6.05;3.25;;;22.20;99.90;;;;;;5028453;28;20104;-86
2023/06/19 06:34:32;;;;;;;5.95;3.08;;;22.20;99.90;;;;;;5031409;28;20021;-88
2023/06/19 06:36:58;;;;;;;9.10;2.97;;;22.30;99.90;;;;;;5038704;28;20055;-91
2023/06/19 06:39:24;;;;;;;4.40;3.15;;;22.50;99.90;;;;;;5044772;28;20021;-89
2023/06/19 06:41:50;;;;;;;4.20;2.92;;;22.50;99.90;;;;;;5068953;28;20013;-84
2023/06/19 06:44:15;;;;;;;4.50;3.05;;;22.70;99.90;;;;;;5052415;28;20016;-85
2023/06/19 06:46:41;;;;;;;3.88;2.75;;;22.80;99.90;;;;;;5057101;28;20015;-83
2023/06/19 06:49:07;;;;;;;5.15;2.90;;;22.90;99.90;;;;;;5057788;28;20016;-85
2023/06/19 06:51:32;;;;;;;2.75;2.55;;;22.90;99.90;;;;;;5047304;28;20049;-83
2023/06/19 06:53:58;;;;;;;3.78;2.85;;;22.90;99.90;;;;;;5052902;28;20033;-83
2023/06/19 06:56:24;;;;;;;5.35;2.67;;;22.90;99.90;;;;;;5036691;28;20023;-83
2023/06/19 06:58:49;;;;;;;7.82;2.90;;;23.10;99.90;;;;;;5026897;28;20024;-82
2023/06/19 07:01:15;;;;;;;6.53;2.70;;;23.10;99.90;;;;;;5042620;28;20036;-83
2023/06/19 07:03:41;;;;;;;4.63;2.72;;;23.10;99.90;;;;;;5024785;28;20040;-83
2023/06/19 07:06:06;;;;;;;4.75;2.67;;;23.10;99.90;;;;;;5038386;28;20472;-83
2023/06/19 07:08:34;;;;;;;3.20;2.33;;;23.10;99.90;;;;;;5027242;28;20383;-83
2023/06/19 07:11:02;;;;;;;3.22;2.55;;;23.10;99.90;;;;;;5040021;28;20061;-83
2023/06/19 07:13:28;;;;;;;2.70;2.50;;;23.10;99.90;;;;;;5031341;28;20432;-83
2023/06/19 07:15:53;;;;;;;3.92;2.97;;;23.10;99.90;;;;;;5021347;28;20102;-82
2023/06/19 07:18:19;;;;;;;9.00;3.15;;;22.80;99.90;;;;;;5021821;28;20033;-81
2023/06/19 07:20:45;;;;;;;2.83;2.60;;;22.70;99.90;;;;;;5043784;28;20366;-90
2023/06/19 07:23:11;;;;;;;6.93;2.65;;;22.80;99.90;;;;;;5032182;28;20484;-81
2023/06/19 07:25:36;;;;;;;2.90;2.70;;;22.80;99.90;;;;;;5032053;28;20025;-90
2023/06/19 07:28:04;;;;;;;3.50;3.15;;;22.80;99.90;;;;;;5043327;28;20557;-90
2023/06/19 07:30:30;;;;;;;6.57;3.17;;;23.00;99.90;;;;;;5045486;28;20036;-86
2023/06/19 07:32:56;;;;;;;4.07;3.00;;;23.10;99.90;;;;;;5034874;28;20025;-87
2023/06/19 07:35:21;;;;;;;3.83;2.90;;;23.20;99.90;;;;;;5038638;28;20021;-85
2023/06/19 07:37:47;;;;;;;3.30;2.83;;;23.20;99.80;;;;;;5036068;28;20025;-83
2023/06/19 07:40:13;;;;;;;6.25;2.25;;;23.30;99.60;;;;;;5036244;28;20052;-84
2023/06/19 07:42:38;;;;;;;6.43;2.92;;;23.50;99.50;;;;;;5043607;28;20125;-84
2023/06/19 07:45:05;;;;;;;3.97;2.50;;;23.50;99.20;;;;;;5033625;28;20575;-84
2023/06/19 07:47:30;;;;;;;5.07;3.38;;;23.60;99.20;;;;;;5030092;28;20025;-86
2023/06/19 07:49:56;;;;;;;6.05;3.13;;;23.60;99.10;;;;;;5032589;28;20028;-86
2023/06/19 07:52:21;;;;;;;9.82;3.47;;;23.80;98.60;;;;;;5031659;28;20090;-82
2023/06/19 07:54:55;;;;;;;65.72;31.83;;;23.80;98.50;;;;;;5029789;28;20028;-86
2023/06/19 07:57:22;;;;;;;7.07;3.95;;;24.00;98.50;;;;;;5034274;28;20116;-79
2023/06/19 07:59:49;;;;;;;8.00;2.97;;;24.00;98.00;;;;;;5033990;28;20040;-87
2023/06/19 08:02:14;;;;;;;6.30;3.63;;;24.10;97.70;;;;;;5031416;28;20044;-87
2023/06/19 08:04:40;;;;;;;6.65;3.40;;;24.10;97.60;;;;;;5051884;28;20104;-88
2023/06/19 08:07:06;;;;;;;6.10;3.58;;;24.20;97.40;;;;;;5046925;28;20029;-87
2023/06/19 08:09:34;;;;;;;4.13;3.72;;;24.20;97.40;;;;;;5033208;28;20037;-84
2023/06/19 08:12:03;;;;;;;4.30;3.42;;;24.00;97.40;;;;;;5052424;28;20028;-85
2023/06/19 08:14:28;;;;;;;3.75;3.42;;;23.70;98.20;;;;;;5035225;28;20082;-80
2023/06/19 08:16:54;;;;;;;6.65;3.55;;;24.20;98.10;;;;;;5045823;28;20016;-81
2023/06/19 08:19:20;;;;;;;5.70;3.85;;;24.30;97.60;;;;;;5025725;28;20124;-82
2023/06/19 08:21:46;;;;;;;6.70;4.43;;;24.20;97.60;;;;;;5032454;28;20051;-84
2023/06/19 08:24:11;;;;;;;5.65;3.28;;;24.10;97.40;;;;;;5049704;28;20044;-82
2023/06/19 08:26:37;;;;;;;7.55;3.83;;;24.40;97.40;;;;;;5048711;28;20029;-83
2023/06/19 08:29:03;;;;;;;6.35;3.97;;;24.60;97.00;;;;;;5031160;28;20026;-82
2023/06/19 08:31:28;;;;;;;6.15;3.55;;;24.80;96.20;;;;;;5027983;28;20036;-81
2023/06/19 08:33:55;;;;;;;5.78;3.80;;;25.10;95.60;;;;;;5043989;28;20605;-85
2023/06/19 08:36:21;;;;;;;4.32;3.75;;;25.30;94.60;;;;;;5046328;28;20044;-85
2023/06/19 08:38:50;;;;;;;4.50;3.80;;;25.20;94.70;;;;;;5028005;28;20043;-84
2023/06/19 08:41:19;;;;;;;6.43;4.13;;;25.20;94.80;;;;;;5031306;28;20082;-87
2023/06/19 08:43:45;;;;;;;5.82;3.70;;;24.80;94.60;;;;;;5049408;28;20056;-85
2023/06/19 08:46:15;;;;;;;106.00;55.90;;;25.10;94.70;;;;;;5043640;28;20529;-80
2023/06/19 08:48:41;;;;;;;6.35;4.65;;;25.70;93.20;;;;;;5024232;28;20021;-84
2023/06/19 08:51:07;;;;;;;6.95;4.05;;;25.90;91.70;;;;;;5046760;28;20025;-82
2023/06/19 08:53:35;;;;;;;6.93;3.88;;;26.10;91.50;;;;;;5047439;28;20098;-83
2023/06/19 08:56:02;;;;;;;5.07;4.10;;;26.00;91.00;;;;;;5055974;28;20090;-81
2023/06/19 08:58:28;;;;;;;15.93;4.30;;;25.80;91.10;;;;;;5055421;28;20033;-82
2023/06/19 09:00:53;;;;;;;5.55;4.07;;;25.60;91.50;;;;;;5045525;28;20020;-82
2023/06/19 09:03:24;;;;;;;4.60;4.13;;;25.30;92.30;;;;;;5051490;28;20051;-81
2023/06/19 09:05:50;;;;;;;4.82;3.60;;;25.20;92.90;;;;;;5043611;28;20048;-82
2023/06/19 09:08:19;;;;;;;8.15;3.90;;;25.20;92.20;;;;;;5023852;28;20045;-84
2023/06/19 09:11:04;;;;;;;50.30;23.70;;;25.30;92.00;;;;;;5038013;28;20024;-80
2023/06/19 09:13:33;;;;;;;4.32;3.92;;;25.80;90.90;;;;;;5039904;28;20500;-83
2023/06/19 09:16:07;;;;;;;9.05;4.68;;;25.70;90.00;;;;;;5045052;28;20028;-83
2023/06/19 09:18:46;;;;;;;6.22;4.32;;;25.50;90.20;;;;;;5040995;28;20021;-83
2023/06/19 09:21:17;;;;;;;10.90;4.22;;;25.60;88.90;;;;;;5036739;28;20040;-88
2023/06/19 09:23:44;;;;;;;13.45;4.70;;;25.80;89.50;;;;;;5028787;28;20500;-82
2023/06/19 09:26:09;;;;;;;113.72;67.00;;;26.10;87.90;;;;;;5027640;28;20048;-83
2023/06/19 09:28:41;;;;;;;7.22;4.57;;;25.90;87.00;;;;;;5045245;28;20025;-82
2023/06/19 09:31:06;;;;;;;5.18;4.57;;;25.60;88.90;;;;;;5020188;28;20041;-83
2023/06/19 09:33:36;;;;;;;8.68;4.68;;;25.40;89.30;;;;;;5038828;28;20017;-83
2023/06/19 09:36:04;;;;;;;5.85;5.30;;;25.20;90.20;;;;;;5057171;28;20040;-84
2023/06/19 09:38:36;;;;;;;9.35;4.50;;;25.40;90.50;;;;;;5037416;28;20039;-83
2023/06/19 09:41:04;;;;;;;14.57;4.43;;;25.40;90.50;;;;;;5041528;28;20037;-83
2023/06/19 09:43:34;;;;;;;7.50;5.40;;;25.60;90.10;;;;;;5024657;28;20036;-81
2023/06/19 09:46:02;;;;;;;7.22;5.25;;;26.00;88.10;;;;;;5051109;28;20037;-83
2023/06/19 09:48:30;;;;;;;5.55;4.70;;;26.70;84.40;;;;;;5049810;28;20025;-84
2023/06/19 09:51:20;;;;;;;11.77;4.82;;;27.30;79.80;;;;;;5042150;28;20025;-83
2023/06/19 09:53:47;;;;;;;5.43;4.90;;;27.70;76.00;;;;;;5039404;28;20123;-84
2023/06/19 09:56:14;;;;;;;10.38;5.07;;;27.70;75.60;;;;;;5025833;28;20032;-83
2023/06/19 09:58:42;;;;;;;9.40;5.45;;;27.90;76.40;;;;;;5027059;28;20033;-84
2023/06/19 10:01:09;;;;;;;6.50;5.30;;;28.00;74.50;;;;;;5022238;28;20025;-83
2023/06/19 10:03:36;;;;;;;5.45;4.93;;;27.70;74.20;;;;;;5043766;28;20032;-84
2023/06/19 10:06:02;;;;;;;10.35;5.70;;;27.80;72.00;;;;;;5025740;28;20029;-84
2023/06/19 10:08:38;;;;;;;6.70;5.68;;;27.70;72.90;;;;;;5041761;28;20085;-83
2023/06/19 10:11:04;;;;;;;10.65;5.50;;;27.30;73.00;;;;;;5043780;28;20056;-83
2023/06/19 10:13:35;;;;;;;9.75;6.20;;;27.20;73.80;;;;;;5024892;28;20476;-83
2023/06/19 10:16:01;;;;;;;9.43;5.72;;;27.70;73.40;;;;;;5026177;28;20029;-83
2023/06/19 10:18:27;;;;;;;6.40;5.80;;;28.00;72.60;;;;;;5039710;28;20104;-83
2023/06/19 10:20:54;;;;;;;6.38;5.80;;;27.70;72.30;;;;;;5045359;28;20520;-83
2023/06/19 10:23:25;;;;;;;7.18;5.90;;;27.80;72.20;;;;;;5019571;28;20041;-83
2023/06/19 10:25:53;;;;;;;12.15;6.38;;;28.40;70.10;;;;;;5023275;28;20059;-83
2023/06/19 10:28:21;;;;;;;9.55;6.43;;;28.20;69.70;;;;;;5043639;28;20060;-84
2023/06/19 10:31:08;;;;;;;8.95;6.90;;;27.80;70.30;;;;;;5037997;28;20029;-83
2023/06/19 10:33:36;;;;;;;10.30;7.20;;;28.10;70.60;;;;;;5038026;28;20068;-83
2023/06/19 10:36:31;;;;;;;9.50;6.88;;;29.00;68.50;;;;;;5033949;28;20029;-83
2023/06/19 10:38:57;;;;;;;7.88;7.07;;;29.60;67.00;;;;;;5009336;28;20641;-84
2023/06/19 10:41:31;;;;;;;9.02;6.45;;;29.50;66.20;;;;;;5019524;28;20100;-84
2023/06/19 10:43:58;;;;;;;10.13;7.65;;;29.40;66.50;;;;;;5028651;28;21250;-84
2023/06/19 10:46:28;;;;;;;11.02;7.53;;;29.30;66.00;;;;;;5015983;28;20976;-92
2023/06/19 10:48:59;;;;;;;10.40;7.53;;;29.40;66.40;;;;;;5015096;28;20409;-91
2023/06/19 10:51:25;;;;;;;12.00;6.97;;;29.80;65.50;;;;;;5023436;28;20026;-94
2023/06/19 10:53:53;;;;;;;12.05;7.05;;;30.70;64.10;;;;;;5016937;28;20032;-94
2023/06/19 10:56:20;;;;;;;10.63;7.50;;;31.00;63.00;;;;;;5041086;28;20034;-87
2023/06/19 10:58:46;;;;;;;9.80;7.57;;;30.90;61.10;;;;;;5001065;28;20116;-89
2023/06/19 11:01:12;;;;;;;18.63;11.25;;;31.20;60.30;;;;;;4999769;28;20108;-88
2023/06/19 11:03:37;;;;;;;8.80;6.82;;;31.20;60.10;;;;;;4986302;28;20489;-86
2023/06/19 11:06:03;;;;;;;9.13;7.40;;;31.20;60.00;;;;;;4989240;28;20647;-87
2023/06/19 11:08:29;;;;;;;40.88;22.27;;;30.70;60.20;;;;;;4989766;28;20026;-89
2023/06/19 11:10:57;;;;;;;8.15;7.22;;;30.20;61.00;;;;;;5009298;28;20028;-93
2023/06/19 11:13:23;;;;;;;10.13;6.88;;;29.70;61.70;;;;;;4995078;28;20013;-93
2023/06/19 11:15:49;;;;;;;8.52;6.32;;;29.40;61.80;;;;;;4994408;28;20028;-96
2023/06/19 11:18:17;;;;;;;9.88;7.35;;;29.30;62.80;;;;;;5002039;28;20460;-94
2023/06/19 11:20:52;;;;;;;8.00;7.18;;;29.20;62.70;;;;;;4992968;28;20029;-95
2023/06/19 11:23:26;;;;;;;11.52;7.20;;;29.10;63.60;;;;;;5036533;28;20031;-94
2023/06/19 11:25:52;;;;;;;7.15;6.45;;;29.60;62.80;;;;;;5081297;23;20218;-94
2023/06/19 11:28:23;;;;;;;7.30;6.60;;;30.00;62.00;;;;;;5043018;22;20060;-90
2023/06/19 11:30:57;;;;;;;9.05;6.65;;;30.30;60.60;;;;;;5038049;28;20025;-94
2023/06/19 11:33:22;;;;;;;13.82;7.25;;;30.30;60.60;;;;;;5005672;28;20034;-94
2023/06/19 11:35:54;;;;;;;7.63;6.53;;;30.00;61.00;;;;;;5006467;28;20343;-93
2023/06/19 11:38:22;;;;;;;7.13;6.43;;;29.90;61.90;;;;;;5009780;28;20021;-92
2023/06/19 11:40:48;;;;;;;7.03;6.15;;;29.90;61.10;;;;;;5008394;28;20033;-94
2023/06/19 11:43:34;;;;;;;8.77;6.82;;;29.80;62.00;;;;;;5009310;28;20041;-88
2023/06/19 11:46:05;;;;;;;7.10;6.40;;;29.70;61.30;;;;;;5011858;28;20164;-93
2023/06/19 11:48:32;;;;;;;7.28;6.15;;;29.70;61.40;;;;;;5011119;28;20032;-94
2023/06/19 11:50:58;;;;;;;13.18;7.03;;;29.70;61.60;;;;;;5007957;28;20029;-91
2023/06/19 11:53:24;;;;;;;7.30;6.22;;;29.30;62.20;;;;;;5010937;28;20122;-91
2023/06/19 11:55:53;;;;;;;11.90;6.43;;;29.40;62.50;;;;;;5025315;28;20021;-94
2023/06/19 11:58:20;;;;;;;8.43;6.68;;;29.60;62.50;;;;;;5029074;28;20021;-95
2023/06/19 12:00:46;;;;;;;7.15;6.28;;;30.20;61.30;;;;;;5015497;28;20041;-94
2023/06/19 12:03:12;;;;;;;6.95;5.95;;;30.30;60.40;;;;;;5014053;28;20037;-93
2023/06/19 12:05:38;;;;;;;10.60;6.60;;;30.10;60.30;;;;;;5008713;28;20034;-88
2023/06/19 12:08:04;;;;;;;11.65;6.70;;;29.80;60.60;;;;;;5024981;28;20057;-87
2023/06/19 12:10:30;;;;;;;49.75;23.30;;;30.00;60.50;;;;;;5026836;28;20034;-88
2023/06/19 12:12:56;;;;;;;10.45;5.28;;;29.80;61.00;;;;;;5012888;28;20025;-88
2023/06/19 12:15:22;;;;;;;12.38;6.57;;;29.80;59.70;;;;;;5014959;28;20024;-88
2023/06/19 12:17:48;;;;;;;9.18;6.88;;;29.90;60.00;;;;;;5005923;28;20017;-88
2023/06/19 12:20:16;;;;;;;11.82;6.35;;;29.80;60.40;;;;;;5018470;28;20121;-88
2023/06/19 12:22:42;;;;;;;6.88;6.22;;;29.90;60.20;;;;;;5022884;28;20033;-89
2023/06/19 12:25:08;;;;;;;7.60;6.30;;;29.80;60.50;;;;;;5022104;28;20199;-88
2023/06/19 12:27:34;;;;;;;9.57;6.07;;;30.10;60.80;;;;;;5038398;28;20038;-88
2023/06/19 12:30:00;;;;;;;8.23;6.50;;;30.40;59.10;;;;;;5020526;28;20028;-93
2023/06/19 12:32:25;;;;;;;7.85;5.57;;;30.60;58.70;;;;;;5029306;28;20361;-93
2023/06/19 12:34:53;;;;;;;10.05;5.85;;;30.70;58.20;;;;;;5045535;28;20052;-88
2023/06/19 12:37:20;;;;;;;6.20;5.68;;;30.90;57.50;;;;;;5039549;28;20057;-92
2023/06/19 12:39:46;;;;;;;7.80;6.22;;;31.10;57.70;;;;;;5042422;28;20077;-92
2023/06/19 12:42:12;;;;;;;7.15;6.00;;;31.00;57.50;;;;;;5039269;28;20037;-92
2023/06/19 12:44:44;;;;;;;7.10;6.40;;;31.00;57.60;;;;;;5045449;28;20018;-94
2023/06/19 12:47:10;;;;;;;6.40;5.78;;;31.00;57.30;;;;;;5036784;28;20025;-92
2023/06/19 12:49:36;;;;;;;7.18;6.00;;;31.40;57.20;;;;;;5016278;28;20021;-93